Historyczne dane pomiarowe

Dodano dane terminowe – wersja testowa.

Dane z okresu 1951-2019

Wersja bazy: 1.34 [2019-03-16, lista zmian], aktualizacja planowana na 2019-04-15

Dane meteo z obszaru Polski uzyskane na podstawie danych udostępnionych przez Instytut Meteorologii i Gospodarki Wodnej – Państwowy Instytut Badawczy.

 

Wybierz Datę:    

       

TemperaturaWilgotnośćWiatrCiśnienieOpadyŚniegCzas trwania zjawisk
 Stacja t tx tn tng RH VA  wxwx mslp ppp RRR   cm mm wxwxwxwxwxwxwx
1979-03-18 -5.2 -2.2 -6.7 -5.1 80.3- 8.0 4.3---- 0.0-- 30---------
1979-03-19 -7.2 -3.7-10.7-10.0 79.5- 6.3 1.7---- 0.0-- 30---------
1979-03-20 -5.6 -1.4-10.4-13.1 80.0- 2.7 3.3---- 0.0-- 25---------
1979-03-21 -1.0 0.8 -5.3 -6.0 99.0- 8.0 7.3---- 4.8-- 24---------
1979-03-22 0.6 4.8 -2.3 -6.0 82.3- 2.0 3.3---- 0.0-- 30---------
1979-03-23 1.2 6.4 -2.3 -8.6 80.8- 2.7 7.0---- 0.4-- 25---------
1979-03-24 0.5 2.5 -1.9 -4.0 91.5- 8.0 6.7---- 0.8-- 20---------
1979-03-25 1.5 6.4 -3.7 -6.5 73.0- 3.0 4.7---- 0.4-- 20---------
1979-03-26 2.9 4.4 1.1 -0.6 92.5- 7.0 6.0---- 2.9-- 15---------
1979-03-27 4.6 8.3 2.4 -0.9 79.3- 5.0 4.3---- 0.0-- 12---------
1979-03-28 3.3 5.8 2.4 -2.4 92.0- 8.0 3.3---- 0.4------------
1979-03-29 2.5 3.5 1.0 0.3 99.0- 8.0 4.0---- 1.0------------
1979-03-30 2.9 6.4 0.3 0.1 93.5- 8.0 3.7---- 6.5------------
1979-03-31 1.0 5.4 -0.3 0.0 98.5- 8.0 4.7---- 7.7------------
1979-04-01 0.3 1.0 -0.7 -0.4 98.5- 8.0 4.0---- 4.3-- 9---------
1979-04-02 2.4 5.7 -0.4 -0.3 91.3- 8.0 5.0---- 0.9-- 5---------
1979-04-03 5.5 10.8 0.9 0.2 80.0- 5.3 3.7---- 0.0------------
1979-04-04 6.4 10.8 2.6 0.2 76.5- 3.0 3.3---- 0.0------------
1979-04-05 2.9 7.0 0.8 1.1 87.3- 8.0 5.0---- 0.0------------
1979-04-06 4.8 8.4 1.7 0.5 76.5- 5.7 2.3---- 0.0------------
1979-04-07 3.6 6.0 -0.5 -1.9 73.0- 6.0 6.7---- 0.0------------
1979-04-08 3.4 7.1 -0.6 -1.8 62.5- 0.0 5.0---- 0.0------------
1979-04-09 3.4 9.5 -3.0 -6.3 70.0- 0.0 1.7---- 0.0------------
1979-04-10 5.1 11.4 -0.2 -4.1 57.5- 0.0 2.3---- 0.0------------
1979-04-11 6.8 12.6 0.8 -1.7 51.0- 1.3 3.7---- 0.0------------
1979-04-12 9.1 15.2 1.7 -1.8 42.3- 0.0 3.7---- 0.0------------
1979-04-13 9.3 16.4 1.9 -2.6 54.8- 2.7 4.0---- 0.0------------
1979-04-14 7.9 14.3 1.3 -1.5 74.3- 0.3 3.3---- 0.0------------
1979-04-15 2.5 7.8 -2.9 -2.5 84.8- 1.7 4.3---- 0.0------------
1979-04-16 -0.7 4.2 -7.2 -9.9 73.3- 0.3 4.7---- 0.0------------
3104.6 ms

 

Źródłem pochodzenia danych jest Instytut Meteorologii i Gospodarki Wodnej – Państwowy Instytut Badawczy. Dane Instytutu Meteorologii i Gospodarki Wodnej – Państwowego Instytutu Badawczego zostały przetworzone.

Dane źródłowe można odnaleźć na stronie https://dane.imgw.pl